sensor_id;sensor_type;location;lat;lon;timestamp;temperature;humidity
5711;DHT22;61291;52.524;13.422;2022-11-04T00:01:59;8.20;99.90
5711;DHT22;61291;52.524;13.422;2022-11-04T00:04:27;8.20;99.90
5711;DHT22;61291;52.524;13.422;2022-11-04T00:06:54;8.20;99.90
5711;DHT22;61291;52.524;13.422;2022-11-04T00:09:25;8.10;99.90
5711;DHT22;61291;52.524;13.422;2022-11-04T00:11:51;8.20;99.90
5711;DHT22;61291;52.524;13.422;2022-11-04T00:14:36;8.20;99.90
5711;DHT22;61291;52.524;13.422;2022-11-04T00:17:02;8.20;99.90
5711;DHT22;61291;52.524;13.422;2022-11-04T00:19:47;8.20;99.90
5711;DHT22;61291;52.524;13.422;2022-11-04T00:22:32;8.20;99.90
5711;DHT22;61291;52.524;13.422;2022-11-04T00:25:16;8.20;99.90
5711;DHT22;61291;52.524;13.422;2022-11-04T00:28:15;8.30;99.90
5711;DHT22;61291;52.524;13.422;2022-11-04T00:31:00;8.30;99.90
5711;DHT22;61291;52.524;13.422;2022-11-04T00:33:47;8.30;99.90
5711;DHT22;61291;52.524;13.422;2022-11-04T00:36:13;8.30;99.90
5711;DHT22;61291;52.524;13.422;2022-11-04T00:38:39;8.30;99.90
5711;DHT22;61291;52.524;13.422;2022-11-04T00:41:04;8.30;99.90
5711;DHT22;61291;52.524;13.422;2022-11-04T00:43:52;8.30;99.90
5711;DHT22;61291;52.524;13.422;2022-11-04T00:46:17;8.30;99.90
5711;DHT22;61291;52.524;13.422;2022-11-04T00:48:43;8.30;99.90
5711;DHT22;61291;52.524;13.422;2022-11-04T00:51:08;8.20;99.90
5711;DHT22;61291;52.524;13.422;2022-11-04T00:53:34;8.20;99.90
5711;DHT22;61291;52.524;13.422;2022-11-04T00:55:59;8.10;99.90
5711;DHT22;61291;52.524;13.422;2022-11-04T00:58:25;8.10;99.90
5711;DHT22;61291;52.524;13.422;2022-11-04T01:00:52;8.10;99.90
5711;DHT22;61291;52.524;13.422;2022-11-04T01:03:17;8.10;99.90
5711;DHT22;61291;52.524;13.422;2022-11-04T01:05:43;8.00;99.90
5711;DHT22;61291;52.524;13.422;2022-11-04T01:08:08;8.00;99.90
5711;DHT22;61291;52.524;13.422;2022-11-04T01:10:35;8.00;99.90
5711;DHT22;61291;52.524;13.422;2022-11-04T01:13:01;7.90;99.90
5711;DHT22;61291;52.524;13.422;2022-11-04T01:15:26;7.90;99.90
5711;DHT22;61291;52.524;13.422;2022-11-04T01:17:51;7.80;99.90
5711;DHT22;61291;52.524;13.422;2022-11-04T01:20:17;7.80;99.90
5711;DHT22;61291;52.524;13.422;2022-11-04T01:22:43;7.90;99.90
5711;DHT22;61291;52.524;13.422;2022-11-04T01:25:08;7.90;99.90
5711;DHT22;61291;52.524;13.422;2022-11-04T01:27:34;7.90;99.90
5711;DHT22;61291;52.524;13.422;2022-11-04T01:29:59;7.80;99.90
5711;DHT22;61291;52.524;13.422;2022-11-04T01:32:26;7.90;99.90
5711;DHT22;61291;52.524;13.422;2022-11-04T01:34:52;7.90;99.90
5711;DHT22;61291;52.524;13.422;2022-11-04T01:37:17;7.90;99.90
5711;DHT22;61291;52.524;13.422;2022-11-04T01:39:43;8.00;99.90
5711;DHT22;61291;52.524;13.422;2022-11-04T01:42:12;8.00;99.90
5711;DHT22;61291;52.524;13.422;2022-11-04T01:49:49;8.20;99.90
5711;DHT22;61291;52.524;13.422;2022-11-04T01:52:21;8.30;99.90
5711;DHT22;61291;52.524;13.422;2022-11-04T01:54:49;8.30;99.90
5711;DHT22;61291;52.524;13.422;2022-11-04T01:57:22;8.40;99.90
5711;DHT22;61291;52.524;13.422;2022-11-04T01:59:49;8.50;99.90
5711;DHT22;61291;52.524;13.422;2022-11-04T02:02:15;8.50;99.90
5711;DHT22;61291;52.524;13.422;2022-11-04T02:04:41;8.60;99.90
5711;DHT22;61291;52.524;13.422;2022-11-04T02:07:08;8.60;99.90
5711;DHT22;61291;52.524;13.422;2022-11-04T02:09:35;8.60;99.90
5711;DHT22;61291;52.524;13.422;2022-11-04T02:12:01;8.60;99.90
5711;DHT22;61291;52.524;13.422;2022-11-04T02:14:47;8.80;99.90
5711;DHT22;61291;52.524;13.422;2022-11-04T02:22:58;8.90;99.90
5711;DHT22;61291;52.524;13.422;2022-11-04T02:31:40;8.80;99.90
5711;DHT22;61291;52.524;13.422;2022-11-04T02:37:12;8.60;99.90
5711;DHT22;61291;52.524;13.422;2022-11-04T02:39:50;8.50;99.90
5711;DHT22;61291;52.524;13.422;2022-11-04T02:45:36;8.30;99.90
5711;DHT22;61291;52.524;13.422;2022-11-04T02:48:07;8.20;99.90
5711;DHT22;61291;52.524;13.422;2022-11-04T02:50:55;8.20;99.90
5711;DHT22;61291;52.524;13.422;2022-11-04T02:53:34;8.30;99.90
5711;DHT22;61291;52.524;13.422;2022-11-04T02:56:02;8.20;99.90
5711;DHT22;61291;52.524;13.422;2022-11-04T02:58:32;8.20;99.90
5711;DHT22;61291;52.524;13.422;2022-11-04T03:01:00;8.20;99.90
5711;DHT22;61291;52.524;13.422;2022-11-04T03:03:34;8.10;99.90
5711;DHT22;61291;52.524;13.422;2022-11-04T03:06:04;8.10;99.90
5711;DHT22;61291;52.524;13.422;2022-11-04T03:08:36;8.10;99.90
5711;DHT22;61291;52.524;13.422;2022-11-04T03:11:24;8.10;99.90
5711;DHT22;61291;52.524;13.422;2022-11-04T03:14:03;8.10;99.90
5711;DHT22;61291;52.524;13.422;2022-11-04T03:16:45;8.20;99.90
5711;DHT22;61291;52.524;13.422;2022-11-04T03:22:18;8.30;99.90
5711;DHT22;61291;52.524;13.422;2022-11-04T03:24:46;8.40;99.90
5711;DHT22;61291;52.524;13.422;2022-11-04T03:27:34;8.40;99.90
5711;DHT22;61291;52.524;13.422;2022-11-04T03:30:14;8.50;99.90
5711;DHT22;61291;52.524;13.422;2022-11-04T03:32:45;8.50;99.90
5711;DHT22;61291;52.524;13.422;2022-11-04T03:35:15;8.60;99.90
5711;DHT22;61291;52.524;13.422;2022-11-04T03:37:42;8.60;99.90
5711;DHT22;61291;52.524;13.422;2022-11-04T03:40:08;8.70;99.90
5711;DHT22;61291;52.524;13.422;2022-11-04T03:42:41;8.80;99.90
5711;DHT22;61291;52.524;13.422;2022-11-04T03:45:09;8.90;99.90
5711;DHT22;61291;52.524;13.422;2022-11-04T03:47:35;9.00;99.90
5711;DHT22;61291;52.524;13.422;2022-11-04T03:50:08;9.10;99.90
5711;DHT22;61291;52.524;13.422;2022-11-04T03:52:35;9.10;99.90
5711;DHT22;61291;52.524;13.422;2022-11-04T03:55:02;9.10;99.90
5711;DHT22;61291;52.524;13.422;2022-11-04T04:00:11;9.20;99.90
5711;DHT22;61291;52.524;13.422;2022-11-04T04:06:09;9.30;99.90
5711;DHT22;61291;52.524;13.422;2022-11-04T04:08:37;9.30;99.90
5711;DHT22;61291;52.524;13.422;2022-11-04T04:11:20;9.50;99.90
5711;DHT22;61291;52.524;13.422;2022-11-04T04:14:14;9.50;99.90
5711;DHT22;61291;52.524;13.422;2022-11-04T04:17:09;9.50;99.90
5711;DHT22;61291;52.524;13.422;2022-11-04T04:19:38;9.50;99.90
5711;DHT22;61291;52.524;13.422;2022-11-04T04:22:11;9.60;99.90
5711;DHT22;61291;52.524;13.422;2022-11-04T04:24:41;9.60;99.90
5711;DHT22;61291;52.524;13.422;2022-11-04T04:27:29;9.60;99.90
5711;DHT22;61291;52.524;13.422;2022-11-04T04:30:12;9.60;99.90
5711;DHT22;61291;52.524;13.422;2022-11-04T04:35:09;9.60;99.90
5711;DHT22;61291;52.524;13.422;2022-11-04T04:37:56;9.60;99.90
5711;DHT22;61291;52.524;13.422;2022-11-04T04:40:46;9.60;99.90
5711;DHT22;61291;52.524;13.422;2022-11-04T04:43:32;9.60;99.90
5711;DHT22;61291;52.524;13.422;2022-11-04T04:46:16;9.60;99.90
5711;DHT22;61291;52.524;13.422;2022-11-04T04:48:41;9.60;99.90
5711;DHT22;61291;52.524;13.422;2022-11-04T04:51:07;9.70;99.90
5711;DHT22;61291;52.524;13.422;2022-11-04T04:53:33;9.70;99.90
5711;DHT22;61291;52.524;13.422;2022-11-04T04:55:59;9.70;99.90
5711;DHT22;61291;52.524;13.422;2022-11-04T04:58:24;9.70;99.90
5711;DHT22;61291;52.524;13.422;2022-11-04T05:00:49;9.70;99.90
5711;DHT22;61291;52.524;13.422;2022-11-04T05:03:15;9.70;99.90
5711;DHT22;61291;52.524;13.422;2022-11-04T05:05:40;9.70;99.90
5711;DHT22;61291;52.524;13.422;2022-11-04T05:08:06;9.70;99.90
5711;DHT22;61291;52.524;13.422;2022-11-04T05:10:32;9.80;99.90
5711;DHT22;61291;52.524;13.422;2022-11-04T05:12:59;9.80;99.90
5711;DHT22;61291;52.524;13.422;2022-11-04T05:15:43;9.80;99.90
5711;DHT22;61291;52.524;13.422;2022-11-04T05:18:09;9.80;99.90
5711;DHT22;61291;52.524;13.422;2022-11-04T05:20:35;9.80;99.90
5711;DHT22;61291;52.524;13.422;2022-11-04T05:23:02;9.90;99.90
5711;DHT22;61291;52.524;13.422;2022-11-04T05:25:28;9.90;99.90
5711;DHT22;61291;52.524;13.422;2022-11-04T05:27:53;9.90;99.90
5711;DHT22;61291;52.524;13.422;2022-11-04T05:30:19;9.90;99.90
5711;DHT22;61291;52.524;13.422;2022-11-04T05:32:45;10.00;99.90
5711;DHT22;61291;52.524;13.422;2022-11-04T05:35:10;10.00;99.90
5711;DHT22;61291;52.524;13.422;2022-11-04T05:37:36;10.00;99.90
5711;DHT22;61291;52.524;13.422;2022-11-04T05:40:02;10.00;99.90
5711;DHT22;61291;52.524;13.422;2022-11-04T05:42:27;10.00;99.90
5711;DHT22;61291;52.524;13.422;2022-11-04T05:44:53;10.10;99.90
5711;DHT22;61291;52.524;13.422;2022-11-04T05:47:19;10.10;99.90
5711;DHT22;61291;52.524;13.422;2022-11-04T05:49:44;10.20;99.90
5711;DHT22;61291;52.524;13.422;2022-11-04T05:52:10;10.20;99.90
5711;DHT22;61291;52.524;13.422;2022-11-04T05:54:36;10.20;99.90
5711;DHT22;61291;52.524;13.422;2022-11-04T05:57:02;10.20;99.90
5711;DHT22;61291;52.524;13.422;2022-11-04T05:59:28;10.10;99.90
5711;DHT22;61291;52.524;13.422;2022-11-04T06:01:53;10.10;99.90
5711;DHT22;61291;52.524;13.422;2022-11-04T06:04:19;10.10;99.90
5711;DHT22;61291;52.524;13.422;2022-11-04T06:06:44;10.10;99.90
5711;DHT22;61291;52.524;13.422;2022-11-04T06:09:10;10.00;99.90
5711;DHT22;61291;52.524;13.422;2022-11-04T06:11:37;10.00;99.90
5711;DHT22;61291;52.524;13.422;2022-11-04T06:14:03;10.00;99.90
5711;DHT22;61291;52.524;13.422;2022-11-04T06:16:29;10.00;99.90
5711;DHT22;61291;52.524;13.422;2022-11-04T06:18:54;10.00;99.90
5711;DHT22;61291;52.524;13.422;2022-11-04T06:21:27;10.00;99.90
5711;DHT22;61291;52.524;13.422;2022-11-04T06:23:53;10.00;99.90
5711;DHT22;61291;52.524;13.422;2022-11-04T06:26:21;10.10;99.90
5711;DHT22;61291;52.524;13.422;2022-11-04T06:28:47;10.10;99.90
5711;DHT22;61291;52.524;13.422;2022-11-04T06:31:14;10.20;99.90
5711;DHT22;61291;52.524;13.422;2022-11-04T06:33:40;10.30;99.90
5711;DHT22;61291;52.524;13.422;2022-11-04T06:36:06;10.40;99.90
5711;DHT22;61291;52.524;13.422;2022-11-04T06:38:34;10.50;99.90
5711;DHT22;61291;52.524;13.422;2022-11-04T06:40:59;10.50;99.90
5711;DHT22;61291;52.524;13.422;2022-11-04T06:43:25;10.60;99.90
5711;DHT22;61291;52.524;13.422;2022-11-04T06:45:57;10.60;99.90
5711;DHT22;61291;52.524;13.422;2022-11-04T06:48:24;10.70;99.90
5711;DHT22;61291;52.524;13.422;2022-11-04T06:50:49;10.70;99.90
5711;DHT22;61291;52.524;13.422;2022-11-04T06:53:15;10.70;99.90
5711;DHT22;61291;52.524;13.422;2022-11-04T06:55:41;10.70;99.90
5711;DHT22;61291;52.524;13.422;2022-11-04T06:58:07;10.70;99.90
5711;DHT22;61291;52.524;13.422;2022-11-04T07:00:32;10.80;99.90
5711;DHT22;61291;52.524;13.422;2022-11-04T07:02:58;10.80;99.90
5711;DHT22;61291;52.524;13.422;2022-11-04T07:05:23;10.90;99.90
5711;DHT22;61291;52.524;13.422;2022-11-04T07:07:49;10.90;99.90
5711;DHT22;61291;52.524;13.422;2022-11-04T07:10:15;11.00;99.90
5711;DHT22;61291;52.524;13.422;2022-11-04T07:12:41;11.00;99.90
5711;DHT22;61291;52.524;13.422;2022-11-04T07:15:07;11.10;99.90
5711;DHT22;61291;52.524;13.422;2022-11-04T07:17:33;11.10;99.90
5711;DHT22;61291;52.524;13.422;2022-11-04T07:19:58;11.20;99.90
5711;DHT22;61291;52.524;13.422;2022-11-04T07:22:24;11.20;99.90
5711;DHT22;61291;52.524;13.422;2022-11-04T07:24:49;11.20;99.90
5711;DHT22;61291;52.524;13.422;2022-11-04T07:27:15;11.20;99.90
5711;DHT22;61291;52.524;13.422;2022-11-04T07:29:40;11.30;99.90
5711;DHT22;61291;52.524;13.422;2022-11-04T07:32:06;11.30;99.90
5711;DHT22;61291;52.524;13.422;2022-11-04T07:34:31;11.30;99.90
5711;DHT22;61291;52.524;13.422;2022-11-04T07:36:57;11.40;99.90
5711;DHT22;61291;52.524;13.422;2022-11-04T07:39:22;11.40;99.90
5711;DHT22;61291;52.524;13.422;2022-11-04T07:41:48;11.50;99.90
5711;DHT22;61291;52.524;13.422;2022-11-04T07:44:13;11.50;99.90
5711;DHT22;61291;52.524;13.422;2022-11-04T07:46:39;11.60;99.90
5711;DHT22;61291;52.524;13.422;2022-11-04T07:49:05;11.70;99.90
5711;DHT22;61291;52.524;13.422;2022-11-04T07:51:31;11.90;99.90
5711;DHT22;61291;52.524;13.422;2022-11-04T07:53:57;12.10;99.90
5711;DHT22;61291;52.524;13.422;2022-11-04T07:56:23;12.20;99.90
5711;DHT22;61291;52.524;13.422;2022-11-04T07:58:49;12.40;99.90
5711;DHT22;61291;52.524;13.422;2022-11-04T08:01:18;12.60;99.90
5711;DHT22;61291;52.524;13.422;2022-11-04T08:03:44;12.80;99.90
5711;DHT22;61291;52.524;13.422;2022-11-04T08:06:11;13.10;99.90
5711;DHT22;61291;52.524;13.422;2022-11-04T08:08:37;13.20;99.90
5711;DHT22;61291;52.524;13.422;2022-11-04T08:11:09;13.30;99.90
5711;DHT22;61291;52.524;13.422;2022-11-04T08:13:36;13.40;99.90
5711;DHT22;61291;52.524;13.422;2022-11-04T08:16:04;13.40;99.90
5711;DHT22;61291;52.524;13.422;2022-11-04T08:18:32;13.40;99.90
5711;DHT22;61291;52.524;13.422;2022-11-04T08:20:58;13.50;99.90
5711;DHT22;61291;52.524;13.422;2022-11-04T08:23:24;13.40;99.90
5711;DHT22;61291;52.524;13.422;2022-11-04T08:25:49;13.40;99.90
5711;DHT22;61291;52.524;13.422;2022-11-04T08:28:15;13.30;99.90
5711;DHT22;61291;52.524;13.422;2022-11-04T08:31:04;13.20;99.90
5711;DHT22;61291;52.524;13.422;2022-11-04T08:33:32;13.30;99.90
5711;DHT22;61291;52.524;13.422;2022-11-04T08:36:00;13.30;99.90
5711;DHT22;61291;52.524;13.422;2022-11-04T08:38:26;13.40;99.90
5711;DHT22;61291;52.524;13.422;2022-11-04T08:40:56;13.50;99.90
5711;DHT22;61291;52.524;13.422;2022-11-04T08:43:22;13.50;99.90
5711;DHT22;61291;52.524;13.422;2022-11-04T08:45:48;13.50;99.90
5711;DHT22;61291;52.524;13.422;2022-11-04T08:48:13;13.50;99.90
5711;DHT22;61291;52.524;13.422;2022-11-04T08:50:41;13.60;99.90
5711;DHT22;61291;52.524;13.422;2022-11-04T08:53:06;13.70;99.90
5711;DHT22;61291;52.524;13.422;2022-11-04T08:55:32;13.90;99.90
5711;DHT22;61291;52.524;13.422;2022-11-04T08:57:59;14.10;99.90
5711;DHT22;61291;52.524;13.422;2022-11-04T09:00:25;14.20;99.90
5711;DHT22;61291;52.524;13.422;2022-11-04T09:02:51;14.30;99.90
5711;DHT22;61291;52.524;13.422;2022-11-04T09:05:17;14.40;99.90
5711;DHT22;61291;52.524;13.422;2022-11-04T09:07:43;14.30;99.90
5711;DHT22;61291;52.524;13.422;2022-11-04T09:10:09;14.30;99.90
5711;DHT22;61291;52.524;13.422;2022-11-04T09:12:35;14.20;99.90
5711;DHT22;61291;52.524;13.422;2022-11-04T09:15:01;14.10;99.90
5711;DHT22;61291;52.524;13.422;2022-11-04T09:17:27;14.10;99.90
5711;DHT22;61291;52.524;13.422;2022-11-04T09:19:52;14.20;99.90
5711;DHT22;61291;52.524;13.422;2022-11-04T09:22:18;14.30;99.90
5711;DHT22;61291;52.524;13.422;2022-11-04T09:24:43;14.00;99.90
5711;DHT22;61291;52.524;13.422;2022-11-04T09:27:09;14.20;99.90
5711;DHT22;61291;52.524;13.422;2022-11-04T09:29:35;14.20;99.90
5711;DHT22;61291;52.524;13.422;2022-11-04T09:32:01;14.30;99.90
5711;DHT22;61291;52.524;13.422;2022-11-04T09:34:27;14.30;99.90
5711;DHT22;61291;52.524;13.422;2022-11-04T09:36:56;14.40;99.90
5711;DHT22;61291;52.524;13.422;2022-11-04T09:39:25;14.40;99.90
5711;DHT22;61291;52.524;13.422;2022-11-04T09:42:00;14.50;99.90
5711;DHT22;61291;52.524;13.422;2022-11-04T09:44:54;14.60;99.90
5711;DHT22;61291;52.524;13.422;2022-11-04T09:47:22;14.80;99.90
5711;DHT22;61291;52.524;13.422;2022-11-04T09:49:52;14.80;99.90
5711;DHT22;61291;52.524;13.422;2022-11-04T09:52:35;14.70;99.90
5711;DHT22;61291;52.524;13.422;2022-11-04T09:55:06;14.80;99.90
5711;DHT22;61291;52.524;13.422;2022-11-04T09:57:36;14.80;99.90
5711;DHT22;61291;52.524;13.422;2022-11-04T10:00:03;14.70;99.90
5711;DHT22;61291;52.524;13.422;2022-11-04T10:11:01;15.20;99.90
5711;DHT22;61291;52.524;13.422;2022-11-04T10:19:43;14.80;99.90
5711;DHT22;61291;52.524;13.422;2022-11-04T10:22:56;14.60;99.90
5711;DHT22;61291;52.524;13.422;2022-11-04T10:25:27;14.60;99.90
5711;DHT22;61291;52.524;13.422;2022-11-04T10:27:54;14.40;99.90
5711;DHT22;61291;52.524;13.422;2022-11-04T10:30:22;14.50;99.90
5711;DHT22;61291;52.524;13.422;2022-11-04T10:33:00;14.40;99.90
5711;DHT22;61291;52.524;13.422;2022-11-04T10:38:19;14.70;99.90
5711;DHT22;61291;52.524;13.422;2022-11-04T10:40:49;14.70;99.90
5711;DHT22;61291;52.524;13.422;2022-11-04T10:43:21;14.70;99.90
5711;DHT22;61291;52.524;13.422;2022-11-04T10:45:54;14.70;99.90
5711;DHT22;61291;52.524;13.422;2022-11-04T10:48:29;14.60;99.90
5711;DHT22;61291;52.524;13.422;2022-11-04T10:50:57;14.70;99.90
5711;DHT22;61291;52.524;13.422;2022-11-04T10:53:28;14.70;99.90
5711;DHT22;61291;52.524;13.422;2022-11-04T10:56:12;14.60;99.90
5711;DHT22;61291;52.524;13.422;2022-11-04T10:58:44;14.50;99.90
5711;DHT22;61291;52.524;13.422;2022-11-04T11:01:32;14.30;99.90
5711;DHT22;61291;52.524;13.422;2022-11-04T11:03:59;14.30;99.90
5711;DHT22;61291;52.524;13.422;2022-11-04T11:06:28;14.20;99.90
5711;DHT22;61291;52.524;13.422;2022-11-04T11:08:57;14.20;99.90
5711;DHT22;61291;52.524;13.422;2022-11-04T11:11:46;14.10;99.90
5711;DHT22;61291;52.524;13.422;2022-11-04T11:16:54;13.90;99.90
5711;DHT22;61291;52.524;13.422;2022-11-04T11:19:22;13.80;99.90
5711;DHT22;61291;52.524;13.422;2022-11-04T11:21:51;13.90;99.90
5711;DHT22;61291;52.524;13.422;2022-11-04T11:24:24;13.90;99.90
5711;DHT22;61291;52.524;13.422;2022-11-04T11:26:53;13.90;99.90
5711;DHT22;61291;52.524;13.422;2022-11-04T11:29:24;13.80;99.90
5711;DHT22;61291;52.524;13.422;2022-11-04T11:31:52;13.80;99.90
5711;DHT22;61291;52.524;13.422;2022-11-04T11:34:25;13.80;99.90
5711;DHT22;61291;52.524;13.422;2022-11-04T11:36:54;13.90;99.90
5711;DHT22;61291;52.524;13.422;2022-11-04T11:39:24;13.80;99.90
5711;DHT22;61291;52.524;13.422;2022-11-04T11:42:01;13.70;99.90
5711;DHT22;61291;52.524;13.422;2022-11-04T11:44:44;13.40;99.90
5711;DHT22;61291;52.524;13.422;2022-11-04T11:52:39;13.20;99.90
5711;DHT22;61291;52.524;13.422;2022-11-04T11:55:16;13.10;99.90
5711;DHT22;61291;52.524;13.422;2022-11-04T11:58:15;13.20;99.90
5711;DHT22;61291;52.524;13.422;2022-11-04T12:00:49;13.20;99.90
5711;DHT22;61291;52.524;13.422;2022-11-04T12:03:29;13.10;99.90
5711;DHT22;61291;52.524;13.422;2022-11-04T12:08:57;13.10;99.90
5711;DHT22;61291;52.524;13.422;2022-11-04T12:11:48;13.10;99.90
5711;DHT22;61291;52.524;13.422;2022-11-04T12:14:43;13.10;99.90
5711;DHT22;61291;52.524;13.422;2022-11-04T12:17:21;13.00;99.90
5711;DHT22;61291;52.524;13.422;2022-11-04T12:20:02;13.00;99.90
5711;DHT22;61291;52.524;13.422;2022-11-04T12:25:49;12.80;99.90
5711;DHT22;61291;52.524;13.422;2022-11-04T12:33:57;12.70;99.90
5711;DHT22;61291;52.524;13.422;2022-11-04T12:36:49;12.60;99.90
5711;DHT22;61291;52.524;13.422;2022-11-04T12:39:27;12.60;99.90
5711;DHT22;61291;52.524;13.422;2022-11-04T12:42:17;12.60;99.90
5711;DHT22;61291;52.524;13.422;2022-11-04T12:44:55;12.70;99.90
5711;DHT22;61291;52.524;13.422;2022-11-04T12:47:37;12.80;99.90
5711;DHT22;61291;52.524;13.422;2022-11-04T12:50:28;12.80;99.90
5711;DHT22;61291;52.524;13.422;2022-11-04T12:58:41;12.70;99.90
5711;DHT22;61291;52.524;13.422;2022-11-04T13:01:22;12.60;99.90
5711;DHT22;61291;52.524;13.422;2022-11-04T13:04:02;12.60;99.90
5711;DHT22;61291;52.524;13.422;2022-11-04T13:06:33;12.50;99.90
5711;DHT22;61291;52.524;13.422;2022-11-04T13:09:23;12.40;99.90
5711;DHT22;61291;52.524;13.422;2022-11-04T13:11:54;12.40;99.90
5711;DHT22;61291;52.524;13.422;2022-11-04T13:14:24;12.30;99.90
5711;DHT22;61291;52.524;13.422;2022-11-04T13:16:56;12.30;99.90
5711;DHT22;61291;52.524;13.422;2022-11-04T13:19:47;12.30;99.90
5711;DHT22;61291;52.524;13.422;2022-11-04T13:22:23;12.30;99.90
5711;DHT22;61291;52.524;13.422;2022-11-04T13:24:59;12.40;99.90
5711;DHT22;61291;52.524;13.422;2022-11-04T13:27:37;12.30;99.90
5711;DHT22;61291;52.524;13.422;2022-11-04T13:30:16;12.20;99.90
5711;DHT22;61291;52.524;13.422;2022-11-04T13:35:32;12.30;99.90
5711;DHT22;61291;52.524;13.422;2022-11-04T13:38:12;12.20;99.90
5711;DHT22;61291;52.524;13.422;2022-11-04T13:41:05;12.30;99.90
5711;DHT22;61291;52.524;13.422;2022-11-04T13:43:35;12.30;99.90
5711;DHT22;61291;52.524;13.422;2022-11-04T13:46:33;12.20;99.90
5711;DHT22;61291;52.524;13.422;2022-11-04T13:49:05;12.30;99.90
5711;DHT22;61291;52.524;13.422;2022-11-04T13:51:43;12.20;99.90
5711;DHT22;61291;52.524;13.422;2022-11-04T13:59:32;12.20;99.90
5711;DHT22;61291;52.524;13.422;2022-11-04T14:04:36;12.10;99.90
5711;DHT22;61291;52.524;13.422;2022-11-04T14:07:04;12.00;99.90
5711;DHT22;61291;52.524;13.422;2022-11-04T14:09:51;12.10;99.90
5711;DHT22;61291;52.524;13.422;2022-11-04T14:12:25;12.20;99.90
5711;DHT22;61291;52.524;13.422;2022-11-04T14:15:09;12.20;99.90
5711;DHT22;61291;52.524;13.422;2022-11-04T14:22:49;12.40;99.90
5711;DHT22;61291;52.524;13.422;2022-11-04T14:25:27;12.50;99.90
5711;DHT22;61291;52.524;13.422;2022-11-04T14:27:59;12.60;99.90
5711;DHT22;61291;52.524;13.422;2022-11-04T14:30:44;12.60;99.90
5711;DHT22;61291;52.524;13.422;2022-11-04T14:33:31;12.70;99.90
5711;DHT22;61291;52.524;13.422;2022-11-04T14:38:39;12.60;99.90
5711;DHT22;61291;52.524;13.422;2022-11-04T14:43:49;12.50;99.90
5711;DHT22;61291;52.524;13.422;2022-11-04T14:46:20;12.30;99.90
5711;DHT22;61291;52.524;13.422;2022-11-04T14:48:49;12.30;99.90
5711;DHT22;61291;52.524;13.422;2022-11-04T14:51:28;12.20;99.90
5711;DHT22;61291;52.524;13.422;2022-11-04T14:54:09;12.10;99.90
5711;DHT22;61291;52.524;13.422;2022-11-04T14:56:35;12.00;99.90
5711;DHT22;61291;52.524;13.422;2022-11-04T14:59:05;12.00;99.90
5711;DHT22;61291;52.524;13.422;2022-11-04T15:01:37;11.90;99.90
5711;DHT22;61291;52.524;13.422;2022-11-04T15:04:24;11.80;99.90
5711;DHT22;61291;52.524;13.422;2022-11-04T15:06:55;11.80;99.90
5711;DHT22;61291;52.524;13.422;2022-11-04T15:09:27;11.70;99.90
5711;DHT22;61291;52.524;13.422;2022-11-04T15:12:10;11.70;99.90
5711;DHT22;61291;52.524;13.422;2022-11-04T15:14:55;11.80;99.90
5711;DHT22;61291;52.524;13.422;2022-11-04T15:17:23;11.80;99.90
5711;DHT22;61291;52.524;13.422;2022-11-04T15:19:54;11.80;99.90
5711;DHT22;61291;52.524;13.422;2022-11-04T15:22:21;11.80;99.90
5711;DHT22;61291;52.524;13.422;2022-11-04T15:24:46;11.80;99.90
5711;DHT22;61291;52.524;13.422;2022-11-04T15:27:15;11.70;99.90
5711;DHT22;61291;52.524;13.422;2022-11-04T15:29:55;11.70;99.90
5711;DHT22;61291;52.524;13.422;2022-11-04T15:32:21;11.70;99.90
5711;DHT22;61291;52.524;13.422;2022-11-04T15:34:47;11.70;99.90
5711;DHT22;61291;52.524;13.422;2022-11-04T15:37:13;11.60;99.90
5711;DHT22;61291;52.524;13.422;2022-11-04T15:39:42;11.60;99.90
5711;DHT22;61291;52.524;13.422;2022-11-04T15:42:13;11.60;99.90
5711;DHT22;61291;52.524;13.422;2022-11-04T15:51:11;11.50;99.90
5711;DHT22;61291;52.524;13.422;2022-11-04T15:53:51;11.50;99.90
5711;DHT22;61291;52.524;13.422;2022-11-04T15:56:21;11.60;99.90
5711;DHT22;61291;52.524;13.422;2022-11-04T15:58:47;11.60;99.90
5711;DHT22;61291;52.524;13.422;2022-11-04T16:01:14;11.50;99.90
5711;DHT22;61291;52.524;13.422;2022-11-04T16:03:54;11.50;99.90
5711;DHT22;61291;52.524;13.422;2022-11-04T16:06:40;11.50;99.90
5711;DHT22;61291;52.524;13.422;2022-11-04T16:09:19;11.50;99.90
5711;DHT22;61291;52.524;13.422;2022-11-04T16:14:29;11.40;99.90
5711;DHT22;61291;52.524;13.422;2022-11-04T16:16:55;11.40;99.90
5711;DHT22;61291;52.524;13.422;2022-11-04T16:19:24;11.40;99.90
5711;DHT22;61291;52.524;13.422;2022-11-04T16:22:06;11.40;99.90
5711;DHT22;61291;52.524;13.422;2022-11-04T16:24:36;11.40;99.90
5711;DHT22;61291;52.524;13.422;2022-11-04T16:27:02;11.30;99.90
5711;DHT22;61291;52.524;13.422;2022-11-04T16:29:35;11.30;99.90
5711;DHT22;61291;52.524;13.422;2022-11-04T16:32:16;11.30;99.90
5711;DHT22;61291;52.524;13.422;2022-11-04T16:34:44;11.30;99.90
5711;DHT22;61291;52.524;13.422;2022-11-04T16:37:10;11.30;99.90
5711;DHT22;61291;52.524;13.422;2022-11-04T16:39:36;11.30;99.90
5711;DHT22;61291;52.524;13.422;2022-11-04T16:42:03;11.30;99.90
5711;DHT22;61291;52.524;13.422;2022-11-04T16:44:29;11.30;99.90
5711;DHT22;61291;52.524;13.422;2022-11-04T16:46:54;11.30;99.90
5711;DHT22;61291;52.524;13.422;2022-11-04T16:49:21;11.40;99.90
5711;DHT22;61291;52.524;13.422;2022-11-04T16:51:50;11.40;99.90
5711;DHT22;61291;52.524;13.422;2022-11-04T16:54:17;11.40;99.90
5711;DHT22;61291;52.524;13.422;2022-11-04T16:56:42;11.40;99.90
5711;DHT22;61291;52.524;13.422;2022-11-04T16:59:10;11.40;99.90
5711;DHT22;61291;52.524;13.422;2022-11-04T17:01:36;11.40;99.90
5711;DHT22;61291;52.524;13.422;2022-11-04T17:04:04;11.40;99.90
5711;DHT22;61291;52.524;13.422;2022-11-04T17:06:31;11.50;99.90
5711;DHT22;61291;52.524;13.422;2022-11-04T17:08:57;11.50;99.90
5711;DHT22;61291;52.524;13.422;2022-11-04T17:11:22;11.50;99.90
5711;DHT22;61291;52.524;13.422;2022-11-04T17:13:48;11.40;99.90
5711;DHT22;61291;52.524;13.422;2022-11-04T17:16:13;11.50;99.90
5711;DHT22;61291;52.524;13.422;2022-11-04T17:18:39;11.60;99.90
5711;DHT22;61291;52.524;13.422;2022-11-04T17:21:07;11.60;99.90
5711;DHT22;61291;52.524;13.422;2022-11-04T17:23:34;11.60;99.90
5711;DHT22;61291;52.524;13.422;2022-11-04T17:25:59;11.50;99.90
5711;DHT22;61291;52.524;13.422;2022-11-04T17:28:25;11.50;99.90
5711;DHT22;61291;52.524;13.422;2022-11-04T17:30:51;11.50;99.90
5711;DHT22;61291;52.524;13.422;2022-11-04T17:33:18;11.50;99.90
5711;DHT22;61291;52.524;13.422;2022-11-04T17:35:46;11.40;99.90
5711;DHT22;61291;52.524;13.422;2022-11-04T17:38:15;11.40;99.90
5711;DHT22;61291;52.524;13.422;2022-11-04T17:40:41;11.40;99.90
5711;DHT22;61291;52.524;13.422;2022-11-04T17:43:26;11.30;99.90
5711;DHT22;61291;52.524;13.422;2022-11-04T17:46:11;11.30;99.90
5711;DHT22;61291;52.524;13.422;2022-11-04T17:48:55;11.20;99.90